createdAt,value
2023-10-29T00:02:34.409Z,98962.63
2023-10-29T00:07:38.288Z,98954.41
2023-10-29T00:12:43.477Z,98954.69
2023-10-29T00:17:52.949Z,98952.88
2023-10-29T00:22:57.003Z,98958.31
2023-10-29T00:28:00.799Z,98958.22
2023-10-29T00:33:07.882Z,98950.19
2023-10-29T00:38:12.326Z,98943.09
2023-10-29T00:43:17.519Z,98944.56
2023-10-29T00:48:24.836Z,98941.22
2023-10-29T00:53:29.121Z,98928.28
2023-10-29T00:58:33.679Z,98925.47
2023-10-29T01:03:39.370Z,98930.56
2023-10-29T01:08:48.496Z,98930.72
2023-10-29T01:13:54.378Z,98925.66
2023-10-29T01:19:01.043Z,98925.03
2023-10-29T01:24:05.076Z,98919.31
2023-10-29T01:29:11.248Z,98919.69
2023-10-29T01:34:25.663Z,98910.97
2023-10-29T01:39:31.681Z,98911.34
2023-10-29T01:44:41.841Z,98897.69
2023-10-29T01:49:48.334Z,98890.44
2023-10-29T01:54:53.996Z,98900.94
2023-10-29T01:59:58.760Z,98900.56
2023-10-29T02:05:05.599Z,98902.84
2023-10-29T02:10:13.910Z,98896.41
2023-10-29T02:15:22.163Z,98888.00
2023-10-29T02:20:27.863Z,98887.00
2023-10-29T02:25:35.521Z,98875.69
2023-10-29T02:30:41.229Z,98858.50
2023-10-29T02:35:46.222Z,98853.69
2023-10-29T02:40:52.156Z,98850.25
2023-10-29T02:45:56.857Z,98857.94
2023-10-29T02:51:04.747Z,98853.97
2023-10-29T02:56:12.575Z,98854.22
2023-10-29T03:01:18.303Z,98851.41
2023-10-29T03:06:23.175Z,98849.22
2023-10-29T03:11:28.647Z,98844.25
2023-10-29T03:16:32.650Z,98844.53
2023-10-29T03:21:36.652Z,98835.28
2023-10-29T03:26:45.116Z,98846.03
2023-10-29T03:31:51.862Z,98846.50
2023-10-29T03:36:57.714Z,98836.16
2023-10-29T03:42:10.658Z,98833.97
2023-10-29T03:47:16.933Z,98827.56
2023-10-29T03:52:22.011Z,98832.97
2023-10-29T03:57:27.926Z,98836.81
2023-10-29T04:02:33.844Z,98835.59
2023-10-29T04:07:49.119Z,98833.81
2023-10-29T04:13:00.395Z,98819.28
2023-10-29T04:18:05.457Z,98818.28
2023-10-29T04:23:09.579Z,98799.28
2023-10-29T04:28:17.641Z,98804.31
2023-10-29T04:33:22.558Z,98785.31
2023-10-29T04:38:29.715Z,98774.63
2023-10-29T04:43:36.342Z,98773.06
2023-10-29T04:48:42.859Z,98755.69
2023-10-29T04:53:49.625Z,98739.72
2023-10-29T04:59:03.943Z,98737.06
2023-10-29T05:04:08.611Z,98735.06
2023-10-29T05:09:14.389Z,98723.38
2023-10-29T05:14:22.597Z,98712.06
2023-10-29T05:19:26.219Z,98700.56
2023-10-29T05:24:31.510Z,98703.19
2023-10-29T05:29:36.925Z,98704.63
2023-10-29T05:34:45.714Z,98680.81
2023-10-29T05:39:51.369Z,98678.97
2023-10-29T05:45:00.069Z,98672.53
2023-10-29T05:50:06.469Z,98671.53
2023-10-29T05:55:14.005Z,98666.72
2023-10-29T06:00:24.159Z,98681.94
2023-10-29T06:05:30.919Z,98700.31
2023-10-29T06:10:35.659Z,98700.31
2023-10-29T06:16:12.250Z,98717.56
2023-10-29T06:21:19.461Z,98718.75
2023-10-29T06:26:23.885Z,98723.84
2023-10-29T06:31:34.749Z,98719.44
2023-10-29T06:36:43.209Z,98730.38
2023-10-29T06:41:50.063Z,98740.13
2023-10-29T06:46:58.716Z,98734.69
2023-10-29T06:52:03.008Z,98729.69
2023-10-29T06:57:09.132Z,98716.91
2023-10-29T07:02:18.457Z,98726.88
2023-10-29T07:07:26.982Z,98737.44
2023-10-29T07:12:36.267Z,98735.03
2023-10-29T07:17:42.585Z,98730.66
2023-10-29T07:22:52.180Z,98728.53
2023-10-29T07:28:09.642Z,98727.16
2023-10-29T07:33:18.058Z,98734.72
2023-10-29T07:38:27.062Z,98733.34
2023-10-29T07:43:35.026Z,98730.41
2023-10-29T07:48:44.495Z,98732.28
2023-10-29T07:53:51.165Z,98743.28
2023-10-29T07:58:56.546Z,98758.13
2023-10-29T08:04:05.466Z,98763.41
2023-10-29T08:09:10.450Z,98763.41
2023-10-29T08:14:18.930Z,98761.19
2023-10-29T08:19:25.275Z,98780.00
2023-10-29T08:24:32.177Z,98756.91
2023-10-29T08:29:37.572Z,98759.53
2023-10-29T08:34:46.626Z,98752.25
2023-10-29T08:40:18.163Z,98738.06
2023-10-29T08:45:38.380Z,98750.44
2023-10-29T08:50:46.720Z,98756.75
2023-10-29T08:55:53.219Z,98750.09
2023-10-29T09:01:09.607Z,98750.31
2023-10-29T09:06:21.937Z,98743.44
2023-10-29T09:11:34.742Z,98745.47
2023-10-29T09:16:42.995Z,98763.34
2023-10-29T09:21:57.599Z,98749.16
2023-10-29T09:27:03.738Z,98754.00
2023-10-29T09:32:09.385Z,98761.13
2023-10-29T09:37:24.352Z,98754.41
2023-10-29T09:42:33.527Z,98721.97
2023-10-29T09:47:38.054Z,98736.59
2023-10-29T09:52:45.755Z,98747.31
2023-10-29T09:57:52.720Z,98735.94
2023-10-29T10:03:02.389Z,98763.97
2023-10-29T10:08:08.546Z,98774.53
2023-10-29T10:13:16.198Z,98746.28
2023-10-29T10:18:24.346Z,98738.16
2023-10-29T10:24:04.695Z,98747.06
2023-10-29T10:29:11.354Z,98743.38
2023-10-29T10:34:17.292Z,98722.66
2023-10-29T10:39:27.041Z,98712.41
2023-10-29T10:44:36.288Z,98705.44
2023-10-29T10:49:50.746Z,98725.72
2023-10-29T10:54:58.183Z,98728.13
2023-10-29T11:00:23.618Z,98751.22
2023-10-29T11:05:31.922Z,98769.13
2023-10-29T11:10:48.875Z,98773.78
2023-10-29T11:15:54.147Z,98787.56
2023-10-29T11:21:00.984Z,98779.59
2023-10-29T11:26:38.150Z,98777.16
2023-10-29T11:31:47.000Z,98781.81
2023-10-29T11:36:54.725Z,98779.97
2023-10-29T11:42:01.811Z,98790.78
2023-10-29T11:47:08.665Z,98801.97
2023-10-29T11:52:15.510Z,98808.66
2023-10-29T11:57:26.232Z,98807.44
2023-10-29T12:02:31.027Z,98789.13
2023-10-29T12:07:36.468Z,98786.88
2023-10-29T12:12:46.025Z,98773.66
2023-10-29T12:17:50.708Z,98774.50
2023-10-29T12:23:05.822Z,98772.91
2023-10-29T12:28:15.751Z,98765.19
2023-10-29T12:33:22.072Z,98764.59
2023-10-29T12:38:40.435Z,98758.47
2023-10-29T12:43:49.890Z,98760.44
2023-10-29T12:49:02.452Z,98751.09
2023-10-29T12:54:18.902Z,98743.75
2023-10-29T12:59:40.385Z,98733.78
2023-10-29T13:04:49.147Z,98740.16
2023-10-29T13:09:55.988Z,98739.34
2023-10-29T13:15:10.037Z,98740.19
2023-10-29T13:20:19.807Z,98738.72
2023-10-29T13:25:24.789Z,98726.28
2023-10-29T13:30:55.976Z,98707.53
2023-10-29T13:36:03.553Z,98722.22
2023-10-29T13:41:14.460Z,98704.97
2023-10-29T13:46:28.290Z,98707.00
2023-10-29T13:51:33.749Z,98715.34
2023-10-29T13:56:41.280Z,98696.41
2023-10-29T14:02:04.035Z,98717.41
2023-10-29T14:07:07.707Z,98718.47
2023-10-29T14:12:14.352Z,98737.81
2023-10-29T14:17:21.313Z,98737.38
2023-10-29T14:22:27.328Z,98721.13
2023-10-29T14:27:33.894Z,98722.38
2023-10-29T14:32:45.095Z,98710.13
2023-10-29T14:37:53.521Z,98707.34
2023-10-29T14:43:20.670Z,98713.06
2023-10-29T14:48:27.509Z,98697.63
2023-10-29T14:53:33.693Z,98704.97
2023-10-29T14:58:42.105Z,98679.19
2023-10-29T15:03:54.757Z,98688.00
2023-10-29T15:09:09.375Z,98677.19
2023-10-29T15:14:18.508Z,98671.31
2023-10-29T15:19:36.685Z,98671.16
2023-10-29T15:24:41.530Z,98660.03
2023-10-29T15:29:48.168Z,98658.00
2023-10-29T15:34:54.007Z,98655.19
2023-10-29T15:40:08.087Z,98661.06
2023-10-29T15:45:15.837Z,98661.28
2023-10-29T15:50:21.258Z,98662.50
2023-10-29T15:55:25.817Z,98670.00
2023-10-29T16:00:42.147Z,98649.31
2023-10-29T16:05:52.923Z,98659.31
2023-10-29T16:10:58.188Z,98671.91
2023-10-29T16:16:02.596Z,98652.41
2023-10-29T16:21:09.864Z,98647.94
2023-10-29T16:26:24.438Z,98650.78
2023-10-29T16:31:29.769Z,98644.66
2023-10-29T16:36:39.914Z,98640.03
2023-10-29T16:41:44.871Z,98658.53
2023-10-29T16:46:51.779Z,98667.69
2023-10-29T16:52:00.700Z,98670.13
2023-10-29T16:57:09.356Z,98678.84
2023-10-29T17:02:17.158Z,98668.88
2023-10-29T17:07:27.237Z,98685.13
2023-10-29T17:12:33.464Z,98692.25
2023-10-29T17:17:44.686Z,98692.63
2023-10-29T17:22:53.994Z,98708.06
2023-10-29T17:28:06.321Z,98716.59
2023-10-29T17:33:15.308Z,98742.97
2023-10-29T17:38:20.656Z,98742.78
2023-10-29T17:43:26.139Z,98741.97
2023-10-29T17:48:30.741Z,98769.00
2023-10-29T17:53:38.228Z,98774.28
2023-10-29T17:58:48.385Z,98782.22
2023-10-29T18:03:58.357Z,98803.53
2023-10-29T18:09:22.508Z,98838.06
2023-10-29T18:14:30.183Z,98850.47
2023-10-29T18:19:35.514Z,98850.28
2023-10-29T18:24:48.405Z,98875.88
2023-10-29T18:29:55.883Z,98899.00
2023-10-29T18:34:59.789Z,98936.94
2023-10-29T18:40:07.016Z,98952.53
2023-10-29T18:45:13.548Z,98948.25
2023-10-29T18:50:17.536Z,98969.66
2023-10-29T18:55:23.426Z,98963.88
2023-10-29T19:00:29.277Z,98961.59
2023-10-29T19:05:35.834Z,98954.25
2023-10-29T19:10:57.132Z,98975.41
2023-10-29T19:16:06.971Z,98982.41
2023-10-29T19:21:15.756Z,98982.75
2023-10-29T19:26:25.418Z,98978.00
2023-10-29T19:31:36.692Z,98982.19
2023-10-29T19:36:41.678Z,98947.34
2023-10-29T19:41:53.729Z,98918.13
2023-10-29T19:46:58.141Z,98890.91
2023-10-29T19:52:03.441Z,98873.22
2023-10-29T19:57:18.896Z,98850.50
2023-10-29T20:02:23.057Z,98832.22
2023-10-29T20:07:32.977Z,98832.97
2023-10-29T20:12:39.577Z,98826.91
2023-10-29T20:17:46.527Z,98838.44
2023-10-29T20:23:03.965Z,98835.19
2023-10-29T20:28:10.431Z,98830.03
2023-10-29T20:33:22.832Z,98848.66
2023-10-29T20:38:28.650Z,98850.28
2023-10-29T20:43:48.341Z,98851.69
2023-10-29T20:48:53.514Z,98870.28
2023-10-29T20:54:05.470Z,98857.91
2023-10-29T20:59:14.255Z,98868.88
2023-10-29T21:04:24.700Z,98874.78
2023-10-29T21:09:29.947Z,98907.72
2023-10-29T21:14:40.269Z,98896.13
2023-10-29T21:19:45.553Z,98913.94
2023-10-29T21:24:52.650Z,98911.06
2023-10-29T21:30:03.948Z,98917.31
2023-10-29T21:35:09.578Z,98923.75
2023-10-29T21:40:20.338Z,98921.34
2023-10-29T21:45:28.429Z,98931.84
2023-10-29T21:50:42.081Z,98929.56
2023-10-29T21:55:47.128Z,98936.03
2023-10-29T22:00:53.519Z,98949.34
2023-10-29T22:06:03.998Z,98952.00
2023-10-29T22:11:09.445Z,98940.00
2023-10-29T22:16:18.087Z,98956.00
2023-10-29T22:21:23.346Z,98965.06
2023-10-29T22:26:29.933Z,98982.84
2023-10-29T22:31:35.246Z,98995.53
2023-10-29T22:36:41.062Z,99015.78
2023-10-29T22:41:47.044Z,99018.56
2023-10-29T22:46:54.293Z,99019.03
2023-10-29T22:51:58.336Z,99011.22
2023-10-29T22:57:02.926Z,99007.22
2023-10-29T23:02:08.827Z,99025.88
2023-10-29T23:07:13.833Z,99021.28
2023-10-29T23:12:19.113Z,99028.53
2023-10-29T23:17:28.978Z,99043.69
2023-10-29T23:22:35.541Z,99043.31
2023-10-29T23:27:41.293Z,99054.03
2023-10-29T23:32:50.611Z,99061.47
2023-10-29T23:37:55.945Z,99050.94
2023-10-29T23:43:04.198Z,99057.66
2023-10-29T23:48:12.540Z,99055.81
2023-10-29T23:53:20.521Z,99045.69
2023-10-29T23:58:25.188Z,99063.47
